createdAt,value
2019-04-05T00:00:11.726Z,2.70
2019-04-05T00:02:41.531Z,2.70
2019-04-05T00:05:19.253Z,2.80
2019-04-05T00:08:03.737Z,2.80
2019-04-05T00:10:33.088Z,2.70
2019-04-05T00:13:02.403Z,2.70
2019-04-05T00:15:31.767Z,2.70
2019-04-05T00:18:01.185Z,2.80
2019-04-05T00:20:31.784Z,2.80
2019-04-05T00:23:03.188Z,2.70
2019-04-05T00:25:33.694Z,2.70
2019-04-05T00:28:09.366Z,2.70
2019-04-05T00:31:27.119Z,2.60
2019-04-05T00:34:34.265Z,2.60
2019-04-05T00:37:04.311Z,2.50
2019-04-05T00:39:54.767Z,2.50
2019-04-05T00:43:00.095Z,2.50
2019-04-05T00:45:49.863Z,2.50
2019-04-05T00:48:27.572Z,2.50
2019-04-05T00:51:20.616Z,2.50
2019-04-05T00:53:58.928Z,2.50
2019-04-05T00:56:30.573Z,2.40
2019-04-05T00:59:39.403Z,2.40
2019-04-05T01:02:21.006Z,2.40
2019-04-05T01:04:54.559Z,2.50
2019-04-05T01:07:44.649Z,2.40
2019-04-05T01:10:18.385Z,2.40
2019-04-05T01:12:54.977Z,2.40
2019-04-05T01:15:41.278Z,2.40
2019-04-05T01:18:17.745Z,2.30
2019-04-05T01:21:00.331Z,2.30
2019-04-05T01:23:49.653Z,2.30
2019-04-05T01:26:31.175Z,2.30
2019-04-05T01:29:55.941Z,2.30
2019-04-05T01:32:23.555Z,2.30
2019-04-05T01:35:24.466Z,2.30
2019-04-05T01:38:28.822Z,2.30
2019-04-05T01:41:08.325Z,2.30
2019-04-05T01:43:38.969Z,2.30
2019-04-05T01:46:08.909Z,2.30
2019-04-05T01:48:43.280Z,2.30
2019-04-05T01:51:13.611Z,2.30
2019-04-05T01:53:43.313Z,2.30
2019-04-05T01:56:12.876Z,2.30
2019-04-05T01:58:42.199Z,2.30
2019-04-05T02:01:11.924Z,2.30
2019-04-05T02:03:41.600Z,2.30
2019-04-05T02:06:10.991Z,2.20
2019-04-05T02:08:40.345Z,2.20
2019-04-05T02:11:12.521Z,2.20
2019-04-05T02:13:41.937Z,2.20
2019-04-05T02:16:13.963Z,2.20
2019-04-05T02:18:43.364Z,2.20
2019-04-05T02:21:12.915Z,2.20
2019-04-05T02:23:44.351Z,2.20
2019-04-05T02:26:13.959Z,2.20
2019-04-05T02:28:43.353Z,2.20
2019-04-05T02:31:14.637Z,2.20
2019-04-05T02:37:33.021Z,2.10
2019-04-05T02:40:15.723Z,2.10
2019-04-05T02:42:50.720Z,2.10
2019-04-05T02:45:25.116Z,2.10
2019-04-05T02:47:57.593Z,2.10
2019-04-05T02:50:30.223Z,2.10
2019-04-05T02:53:15.164Z,2.20
2019-04-05T02:55:53.928Z,2.20
2019-04-05T02:58:41.829Z,2.20
2019-04-05T03:01:11.621Z,2.20
2019-04-05T03:03:46.716Z,2.10
2019-04-05T03:06:22.312Z,2.10
2019-04-05T03:08:53.460Z,2.10
2019-04-05T03:11:25.865Z,2.00
2019-04-05T03:13:58.133Z,2.00
2019-04-05T03:16:40.853Z,1.90
2019-04-05T03:19:10.615Z,1.90
2019-04-05T03:21:43.872Z,1.90
2019-04-05T03:24:17.940Z,1.90
2019-04-05T03:26:53.197Z,1.90
2019-04-05T03:29:22.536Z,2.00
2019-04-05T03:31:52.382Z,2.20
2019-04-05T03:34:23.821Z,2.30
2019-04-05T03:36:53.959Z,2.50
2019-04-05T03:39:25.348Z,2.60
2019-04-05T03:41:55.470Z,2.80
2019-04-05T03:44:24.844Z,2.90
2019-04-05T03:46:57.655Z,3.00
2019-04-05T03:49:26.773Z,2.80
2019-04-05T03:51:56.196Z,2.60
2019-04-05T03:54:25.884Z,2.50
2019-04-05T03:56:55.160Z,2.40
2019-04-05T03:59:24.525Z,2.30
2019-04-05T04:01:54.106Z,2.30
2019-04-05T04:04:23.642Z,2.30
2019-04-05T04:06:52.980Z,2.30
2019-04-05T04:09:22.545Z,2.30
2019-04-05T04:11:55.316Z,2.30
2019-04-05T04:14:24.770Z,2.30
2019-04-05T04:17:10.955Z,2.40
2019-04-05T04:19:25.813Z,2.50
2019-04-05T04:22:27.868Z,2.70
2019-04-05T04:24:58.888Z,2.70
2019-04-05T04:27:29.535Z,2.80
2019-04-05T04:30:00.421Z,2.70
2019-04-05T04:32:30.556Z,2.70
2019-04-05T04:35:00.844Z,2.70
2019-04-05T04:37:30.168Z,2.70
2019-04-05T04:39:59.571Z,2.60
2019-04-05T04:42:29.311Z,2.50
2019-04-05T04:45:11.819Z,2.50
2019-04-05T04:47:33.607Z,2.50
2019-04-05T04:50:03.153Z,2.50
2019-04-05T04:52:33.540Z,2.40
2019-04-05T04:55:02.937Z,2.40
2019-04-05T04:57:32.434Z,2.30
2019-04-05T05:00:02.047Z,2.30
2019-04-05T05:02:31.708Z,2.30
2019-04-05T05:05:03.408Z,2.30
2019-04-05T05:07:33.435Z,2.30
2019-04-05T05:10:03.466Z,2.30
2019-04-05T05:12:33.021Z,2.30
2019-04-05T05:15:04.236Z,2.40
2019-04-05T05:17:38.841Z,2.40
2019-04-05T05:20:06.472Z,2.40
2019-04-05T05:22:35.935Z,2.40
2019-04-05T05:25:06.755Z,2.40
2019-04-05T05:27:36.410Z,2.40
2019-04-05T05:30:06.806Z,2.30
2019-04-05T05:32:36.423Z,2.30
2019-04-05T05:35:06.271Z,2.30
2019-04-05T05:37:36.221Z,2.30
2019-04-05T05:40:06.132Z,2.30
2019-04-05T05:42:36.751Z,2.30
2019-04-05T05:45:06.699Z,2.30
2019-04-05T05:47:35.980Z,2.30
2019-04-05T05:50:09.522Z,2.30
2019-04-05T05:52:39.433Z,2.30
2019-04-05T05:55:09.288Z,2.30
2019-04-05T05:57:38.679Z,2.30
2019-04-05T06:00:08.725Z,2.40
2019-04-05T06:02:38.914Z,2.40
2019-04-05T06:05:09.451Z,2.40
2019-04-05T06:07:39.159Z,2.40
2019-04-05T06:10:09.565Z,2.40
2019-04-05T06:12:38.959Z,2.50
2019-04-05T06:15:09.867Z,2.50
2019-04-05T06:17:40.202Z,2.50
2019-04-05T06:20:10.130Z,2.50
2019-04-05T06:22:39.688Z,2.50
2019-04-05T06:25:09.826Z,2.60
2019-04-05T06:27:42.985Z,2.60
2019-04-05T06:30:12.472Z,2.60
2019-04-05T06:32:41.806Z,2.70
2019-04-05T06:35:12.010Z,2.60
2019-04-05T06:37:43.763Z,2.70
2019-04-05T06:40:13.306Z,2.70
2019-04-05T06:42:42.657Z,2.70
2019-04-05T06:45:12.274Z,2.80
2019-04-05T06:47:42.057Z,2.80
2019-04-05T06:50:11.571Z,2.90
2019-04-05T06:52:42.459Z,2.90
2019-04-05T06:55:12.058Z,3.00
2019-04-05T06:57:44.490Z,3.00
2019-04-05T07:00:13.806Z,3.10
2019-04-05T07:02:43.179Z,3.10
2019-04-05T07:05:16.121Z,3.10
2019-04-05T07:07:45.505Z,3.10
2019-04-05T07:10:14.882Z,3.20
2019-04-05T07:12:46.022Z,3.20
2019-04-05T07:15:16.195Z,3.20
2019-04-05T07:17:45.691Z,3.30
2019-04-05T07:20:15.153Z,3.30
2019-04-05T07:22:44.869Z,3.40
2019-04-05T07:25:14.365Z,3.40
2019-04-05T07:27:44.136Z,3.40
2019-04-05T07:32:49.012Z,3.40
2019-04-05T07:35:18.340Z,3.50
2019-04-05T07:37:49.513Z,3.50
2019-04-05T07:40:19.809Z,3.50
2019-04-05T07:42:49.448Z,3.50
2019-04-05T07:45:19.689Z,3.60
2019-04-05T07:47:51.996Z,3.70
2019-04-05T07:50:21.487Z,3.60
2019-04-05T07:52:50.897Z,3.50
2019-04-05T07:55:21.926Z,3.40
2019-04-05T07:57:51.878Z,3.30
2019-04-05T08:00:44.215Z,3.20
2019-04-05T08:03:14.043Z,3.20
2019-04-05T08:05:44.020Z,3.20
2019-04-05T08:08:20.392Z,3.20
2019-04-05T08:10:50.007Z,3.20
2019-04-05T08:13:20.910Z,3.30
2019-04-05T08:15:50.417Z,3.30
2019-04-05T08:18:22.074Z,3.50
2019-04-05T08:20:56.199Z,3.60
2019-04-05T08:23:27.680Z,3.60
2019-04-05T08:25:59.083Z,3.60
2019-04-05T08:28:29.788Z,3.60
2019-04-05T08:30:59.460Z,3.60
2019-04-05T08:33:29.116Z,3.50
2019-04-05T08:35:59.872Z,3.50
2019-04-05T08:38:30.392Z,3.50
2019-04-05T08:40:59.913Z,3.50
2019-04-05T08:43:29.684Z,3.50
2019-04-05T08:46:02.365Z,3.50
2019-04-05T08:48:32.468Z,3.60
2019-04-05T08:51:04.686Z,3.50
2019-04-05T08:53:35.929Z,3.60
2019-04-05T08:56:05.684Z,3.60
2019-04-05T08:58:39.040Z,3.60
2019-04-05T09:01:08.711Z,3.60
2019-04-05T09:03:38.786Z,3.50
2019-04-05T09:06:08.693Z,3.60
2019-04-05T09:08:40.283Z,3.60
2019-04-05T09:11:09.712Z,3.60
2019-04-05T09:13:41.943Z,3.60
2019-04-05T09:16:11.979Z,3.60
2019-04-05T09:18:44.734Z,3.60
2019-04-05T09:21:14.283Z,3.60
2019-04-05T09:23:45.021Z,3.70
2019-04-05T09:26:15.401Z,3.70
2019-04-05T09:28:46.735Z,3.80
2019-04-05T09:31:18.494Z,3.70
2019-04-05T09:33:48.436Z,3.70
2019-04-05T09:36:19.071Z,3.70
2019-04-05T09:38:51.845Z,3.80
2019-04-05T09:41:21.530Z,3.80
2019-04-05T09:43:54.166Z,3.80
2019-04-05T09:46:23.845Z,3.80
2019-04-05T09:48:53.952Z,3.80
2019-04-05T09:51:23.624Z,3.90
2019-04-05T09:53:57.686Z,4.00
2019-04-05T09:56:27.238Z,4.00
2019-04-05T09:58:56.638Z,4.00
2019-04-05T10:01:26.333Z,4.00
2019-04-05T10:03:56.037Z,4.10
2019-04-05T10:06:25.540Z,4.10
2019-04-05T10:08:55.180Z,4.10
2019-04-05T10:11:25.545Z,4.10
2019-04-05T10:13:54.943Z,4.10
2019-04-05T10:16:24.806Z,4.10
2019-04-05T10:18:57.087Z,4.20
2019-04-05T10:21:27.077Z,4.20
2019-04-05T10:23:58.550Z,4.20
2019-04-05T10:26:29.158Z,4.20
2019-04-05T10:29:01.127Z,4.20
2019-04-05T10:31:32.827Z,4.30
2019-04-05T10:34:03.373Z,4.30
2019-04-05T10:36:35.983Z,4.30
2019-04-05T10:39:08.500Z,4.30
2019-04-05T10:41:37.951Z,4.30
2019-04-05T10:44:11.156Z,4.40
2019-04-05T10:46:40.641Z,4.40
2019-04-05T10:49:10.068Z,4.50
2019-04-05T10:51:39.427Z,4.50
2019-04-05T10:54:09.733Z,4.50
2019-04-05T10:56:39.568Z,4.50
2019-04-05T10:59:08.970Z,4.60
2019-04-05T11:01:38.408Z,4.70
2019-04-05T11:04:10.300Z,4.70
2019-04-05T11:06:39.814Z,4.70
2019-04-05T11:09:11.593Z,4.70
2019-04-05T11:11:40.946Z,4.80
2019-04-05T11:14:13.936Z,4.80
2019-04-05T11:16:41.687Z,4.80
2019-04-05T11:19:11.426Z,4.80
2019-04-05T11:21:41.413Z,4.80
2019-04-05T11:24:10.834Z,4.80
2019-04-05T11:26:40.830Z,4.90
2019-04-05T11:29:10.545Z,4.90
2019-04-05T11:31:40.258Z,5.00
2019-04-05T11:34:09.643Z,5.10
2019-04-05T11:36:39.850Z,5.20
2019-04-05T11:39:14.409Z,5.20
2019-04-05T11:41:45.596Z,5.30
2019-04-05T11:44:16.512Z,5.40
2019-04-05T11:46:49.104Z,5.50
2019-04-05T11:49:18.250Z,5.50
2019-04-05T11:51:48.485Z,5.50
2019-04-05T11:54:18.555Z,5.60
2019-04-05T11:56:57.069Z,5.70
2019-04-05T11:59:26.922Z,5.70
2019-04-05T12:02:05.465Z,5.70
2019-04-05T12:04:34.819Z,5.70
2019-04-05T12:07:04.182Z,5.80
2019-04-05T12:09:33.969Z,5.70
2019-04-05T12:12:03.334Z,5.80
2019-04-05T12:14:34.524Z,5.80
2019-04-05T12:17:05.674Z,5.90
2019-04-05T12:19:38.009Z,6.00
2019-04-05T12:22:09.305Z,5.90
2019-04-05T12:24:38.852Z,5.80
2019-04-05T12:27:08.246Z,5.80
2019-04-05T12:29:38.022Z,5.90
2019-04-05T12:32:07.390Z,5.90
2019-04-05T12:34:37.168Z,5.90
2019-04-05T12:37:06.656Z,6.00
2019-04-05T12:39:37.137Z,6.00
2019-04-05T12:42:06.622Z,6.00
2019-04-05T12:44:36.218Z,6.00
2019-04-05T12:47:05.979Z,6.10
2019-04-05T12:49:35.407Z,6.20
2019-04-05T12:52:04.881Z,6.10
2019-04-05T12:54:34.580Z,6.20
2019-04-05T12:57:04.093Z,6.20
2019-04-05T12:59:33.566Z,6.10
2019-04-05T13:02:02.962Z,6.10
2019-04-05T13:04:32.368Z,6.00
2019-04-05T13:07:01.759Z,6.00
2019-04-05T13:09:31.406Z,6.20
2019-04-05T13:12:00.837Z,6.20
2019-04-05T13:14:35.829Z,6.40
2019-04-05T13:17:05.676Z,6.50
2019-04-05T13:19:36.866Z,6.50
2019-04-05T13:22:06.392Z,6.50
2019-04-05T13:24:39.583Z,6.60
2019-04-05T13:27:07.329Z,6.60
2019-04-05T13:29:36.814Z,6.50
2019-04-05T13:32:08.844Z,6.40
2019-04-05T13:34:38.268Z,6.50
2019-04-05T13:37:19.746Z,6.60
2019-04-05T13:39:40.159Z,6.50
2019-04-05T13:42:09.598Z,6.60
2019-04-05T13:44:40.880Z,6.50
2019-04-05T13:47:10.689Z,6.40
2019-04-05T13:49:40.678Z,6.60
2019-04-05T13:52:12.007Z,6.70
2019-04-05T13:54:41.842Z,6.90
2019-04-05T13:57:11.581Z,6.90
2019-04-05T13:59:41.344Z,6.80
2019-04-05T14:02:10.684Z,6.80
2019-04-05T14:04:42.835Z,7.00
2019-04-05T14:07:12.208Z,6.90
2019-04-05T14:09:41.570Z,7.00
2019-04-05T14:12:11.574Z,7.20
2019-04-05T14:14:42.182Z,7.20
2019-04-05T14:17:13.760Z,7.20
2019-04-05T14:19:46.782Z,7.10
2019-04-05T14:22:15.649Z,6.90
2019-04-05T14:24:50.382Z,7.10
2019-04-05T14:27:20.287Z,7.10
2019-04-05T14:29:49.692Z,6.90
2019-04-05T14:32:21.706Z,6.90
2019-04-05T14:34:53.890Z,7.00
2019-04-05T14:37:24.972Z,6.90
2019-04-05T14:39:53.862Z,6.80
2019-04-05T14:42:25.217Z,6.90
2019-04-05T14:44:56.981Z,7.00
2019-04-05T14:47:28.280Z,7.10
2019-04-05T14:49:58.290Z,7.20
2019-04-05T14:52:31.152Z,7.20
2019-04-05T14:55:03.525Z,7.20
2019-04-05T14:57:36.679Z,7.00
2019-04-05T15:00:07.596Z,7.00
2019-04-05T15:02:37.391Z,7.10
2019-04-05T15:05:07.358Z,7.20
2019-04-05T15:07:40.128Z,7.20
2019-04-05T15:10:09.676Z,7.20
2019-04-05T15:12:40.390Z,7.30
2019-04-05T15:15:10.295Z,7.20
2019-04-05T15:17:47.960Z,7.40
2019-04-05T15:20:13.269Z,7.50
2019-04-05T15:22:43.203Z,7.50
2019-04-05T15:25:17.500Z,7.50
2019-04-05T15:27:51.310Z,7.60
2019-04-05T15:30:21.505Z,7.60
2019-04-05T15:32:51.487Z,7.70
2019-04-05T15:35:21.286Z,7.70
2019-04-05T15:37:50.655Z,7.80
2019-04-05T15:40:21.416Z,7.90
2019-04-05T15:42:51.695Z,8.00
2019-04-05T15:45:22.415Z,8.10
2019-04-05T15:47:53.468Z,8.10
2019-04-05T15:50:23.588Z,8.10
2019-04-05T15:53:02.340Z,8.20
2019-04-05T15:55:34.400Z,8.20
2019-04-05T15:58:06.163Z,8.30
2019-04-05T16:00:44.469Z,8.20
2019-04-05T16:03:16.056Z,8.20
2019-04-05T16:05:46.876Z,8.10
2019-04-05T16:08:19.791Z,8.20
2019-04-05T16:10:50.867Z,8.20
2019-04-05T16:13:20.871Z,8.10
2019-04-05T16:15:51.232Z,8.10
2019-04-05T16:18:22.563Z,8.20
2019-04-05T16:20:53.464Z,8.20
2019-04-05T16:23:23.858Z,8.20
2019-04-05T16:25:54.283Z,8.10
2019-04-05T16:28:25.191Z,8.10
2019-04-05T16:30:56.657Z,8.10
2019-04-05T16:33:27.293Z,8.10
2019-04-05T16:35:56.647Z,8.10
2019-04-05T16:38:26.057Z,8.00
2019-04-05T16:40:56.303Z,8.00
2019-04-05T16:43:27.216Z,7.90
2019-04-05T16:46:00.718Z,7.90
2019-04-05T16:48:33.281Z,8.00
2019-04-05T16:51:05.133Z,8.00
2019-04-05T16:53:36.022Z,8.00
2019-04-05T16:56:06.419Z,7.90
2019-04-05T16:58:36.798Z,7.90
2019-04-05T17:01:07.040Z,7.90
2019-04-05T17:03:37.444Z,8.00
2019-04-05T17:06:08.321Z,8.00
2019-04-05T17:08:38.886Z,7.90
2019-04-05T17:11:14.050Z,7.80
2019-04-05T17:13:50.588Z,7.90
2019-04-05T17:16:27.188Z,7.80
2019-04-05T17:18:57.220Z,7.90
2019-04-05T17:21:30.956Z,7.90
2019-04-05T17:24:23.053Z,7.90
2019-04-05T17:26:54.703Z,7.70
2019-04-05T17:29:32.100Z,7.70
2019-04-05T17:32:20.228Z,7.70
2019-04-05T17:34:51.761Z,7.70
2019-04-05T17:37:26.428Z,7.60
2019-04-05T17:40:02.335Z,7.60
2019-04-05T17:42:34.862Z,7.60
2019-04-05T17:45:14.219Z,7.50
2019-04-05T17:47:46.529Z,7.60
2019-04-05T17:50:29.611Z,7.60
2019-04-05T17:53:11.453Z,7.60
2019-04-05T17:55:34.894Z,7.60
2019-04-05T17:58:07.822Z,7.60
2019-04-05T18:00:37.666Z,7.70
2019-04-05T18:03:08.204Z,7.70
2019-04-05T18:05:38.726Z,7.70
2019-04-05T18:08:09.451Z,7.40
2019-04-05T18:10:40.371Z,7.20
2019-04-05T18:13:10.906Z,6.90
2019-04-05T18:15:51.843Z,6.90
2019-04-05T18:18:13.844Z,7.10
2019-04-05T18:20:47.474Z,7.10
2019-04-05T18:23:25.269Z,7.20
2019-04-05T18:25:53.858Z,7.20
2019-04-05T18:31:02.673Z,7.40
2019-04-05T18:33:33.416Z,7.40
2019-04-05T18:36:03.991Z,7.40
2019-04-05T18:38:34.510Z,7.40
2019-04-05T18:41:05.028Z,7.50
2019-04-05T18:43:35.582Z,7.50
2019-04-05T18:46:06.134Z,7.50
2019-04-05T18:48:36.957Z,7.60
2019-04-05T18:51:08.994Z,7.70
2019-04-05T18:53:39.433Z,7.70
2019-04-05T18:56:11.478Z,7.70
2019-04-05T19:01:26.458Z,7.80
2019-04-05T19:03:57.841Z,7.80
2019-04-05T19:06:29.283Z,7.80
2019-04-05T19:09:04.977Z,7.80
2019-04-05T19:11:33.619Z,7.80
2019-04-05T19:14:05.920Z,7.90
2019-04-05T19:16:36.881Z,7.90
2019-04-05T19:19:09.872Z,7.90
2019-04-05T19:21:42.366Z,7.90
2019-04-05T19:24:16.022Z,7.90
2019-04-05T19:26:50.020Z,7.90
2019-04-05T19:29:21.761Z,7.90
2019-04-05T19:50:06.047Z,7.80
2019-04-05T19:52:38.367Z,7.90
2019-04-05T19:55:17.222Z,7.90
2019-04-05T19:57:51.923Z,7.90
2019-04-05T20:00:23.655Z,8.00
2019-04-05T20:02:59.819Z,8.00
2019-04-05T20:05:31.968Z,8.00
2019-04-05T20:08:03.675Z,8.00
2019-04-05T20:10:37.170Z,8.00
2019-04-05T20:13:38.329Z,8.00
2019-04-05T20:16:20.685Z,8.00
2019-04-05T20:18:55.127Z,7.90
2019-04-05T20:21:26.072Z,7.80
2019-04-05T20:23:59.257Z,7.80
2019-04-05T20:26:30.766Z,7.80
2019-04-05T20:29:02.349Z,7.90
2019-04-05T20:31:34.909Z,7.90
2019-04-05T20:34:10.164Z,7.90
2019-04-05T20:36:41.281Z,8.00
2019-04-05T20:39:10.918Z,8.00
2019-04-05T20:41:46.655Z,8.00
2019-04-05T20:44:24.731Z,8.00
2019-04-05T20:47:00.495Z,8.00
2019-04-05T20:49:33.431Z,8.00
2019-04-05T20:52:09.057Z,8.00
2019-04-05T20:54:48.493Z,8.00
2019-04-05T20:57:33.598Z,8.00
2019-04-05T21:00:09.811Z,8.00
2019-04-05T21:02:42.667Z,7.90
2019-04-05T21:05:25.005Z,7.90
2019-04-05T21:07:53.048Z,7.90
2019-04-05T21:10:26.626Z,7.80
2019-04-05T21:15:42.341Z,7.80
2019-04-05T21:18:38.965Z,7.80
2019-04-05T21:26:49.267Z,7.90
2019-04-05T21:29:27.976Z,7.80
2019-04-05T21:32:02.115Z,7.90
2019-04-05T21:34:43.698Z,7.90
2019-04-05T21:37:15.616Z,7.90
2019-04-05T21:39:47.545Z,7.90
2019-04-05T21:42:20.762Z,7.90
2019-04-05T21:45:12.349Z,7.90
2019-04-05T21:47:48.585Z,7.90
2019-04-05T21:50:21.471Z,7.90
2019-04-05T21:53:12.505Z,7.90
2019-04-05T21:55:45.117Z,7.90
2019-04-05T21:58:25.828Z,7.90
2019-04-05T22:01:20.654Z,7.90
2019-04-05T22:03:59.295Z,7.90
2019-04-05T22:06:36.105Z,7.90
2019-04-05T22:09:10.939Z,7.80
2019-04-05T22:11:52.026Z,7.80
2019-04-05T22:14:38.870Z,7.70
2019-04-05T22:17:15.969Z,7.70
2019-04-05T22:19:55.722Z,7.70
2019-04-05T22:22:32.401Z,7.70
2019-04-05T22:25:04.527Z,7.70
2019-04-05T22:27:34.643Z,7.70
2019-04-05T22:30:11.361Z,7.70
2019-04-05T22:32:42.104Z,7.70
2019-04-05T22:35:14.728Z,7.70
2019-04-05T22:37:45.017Z,7.70
2019-04-05T22:40:15.081Z,7.70
2019-04-05T22:42:44.823Z,7.80
2019-04-05T22:45:14.830Z,7.70
2019-04-05T22:47:44.325Z,7.70
2019-04-05T22:50:25.165Z,7.70
2019-04-05T22:52:55.398Z,7.80
2019-04-05T22:55:29.699Z,7.80
2019-04-05T22:58:09.444Z,7.80
2019-04-05T23:00:38.959Z,7.80
2019-04-05T23:03:08.528Z,7.80
2019-04-05T23:05:38.007Z,7.80
2019-04-05T23:08:08.370Z,7.80
2019-04-05T23:10:41.698Z,7.80
2019-04-05T23:13:11.565Z,7.80
2019-04-05T23:15:42.043Z,7.80
2019-04-05T23:18:11.618Z,7.80
2019-04-05T23:20:41.125Z,7.80
2019-04-05T23:23:10.614Z,7.80
2019-04-05T23:25:40.331Z,7.90
2019-04-05T23:28:09.799Z,7.90
2019-04-05T23:30:39.581Z,7.90
2019-04-05T23:33:12.720Z,7.90
2019-04-05T23:35:42.258Z,7.90
2019-04-05T23:38:12.150Z,7.90
2019-04-05T23:40:41.858Z,8.00
2019-04-05T23:43:11.325Z,8.00
2019-04-05T23:45:43.281Z,8.00
2019-04-05T23:48:12.768Z,8.00
2019-04-05T23:50:42.967Z,8.00
2019-04-05T23:53:13.276Z,7.90
2019-04-05T23:55:45.204Z,7.90
2019-04-05T23:58:15.378Z,7.90
